sensor_id;sensor_type;location;lat;lon;timestamp;P1;durP1;ratioP1;P2;durP2;ratioP2
1949;SDS011;975;48.760;9.152;2023-02-22T00:01:20;8.15;;;3.20;;
1949;SDS011;975;48.760;9.152;2023-02-22T00:03:59;6.32;;;2.75;;
1949;SDS011;975;48.760;9.152;2023-02-22T00:06:28;7.75;;;2.88;;
1949;SDS011;975;48.760;9.152;2023-02-22T00:08:57;5.80;;;2.90;;
1949;SDS011;975;48.760;9.152;2023-02-22T00:11:26;4.32;;;2.22;;
1949;SDS011;975;48.760;9.152;2023-02-22T00:13:59;8.20;;;2.35;;
1949;SDS011;975;48.760;9.152;2023-02-22T00:16:27;9.13;;;3.20;;
1949;SDS011;975;48.760;9.152;2023-02-22T00:18:55;8.65;;;2.95;;
1949;SDS011;975;48.760;9.152;2023-02-22T00:21:23;11.38;;;3.05;;
1949;SDS011;975;48.760;9.152;2023-02-22T00:23:50;5.53;;;2.78;;
1949;SDS011;975;48.760;9.152;2023-02-22T00:26:20;8.07;;;2.97;;
1949;SDS011;975;48.760;9.152;2023-02-22T00:28:49;6.38;;;2.40;;
1949;SDS011;975;48.760;9.152;2023-02-22T00:31:20;5.13;;;2.50;;
1949;SDS011;975;48.760;9.152;2023-02-22T00:33:48;7.00;;;2.92;;
1949;SDS011;975;48.760;9.152;2023-02-22T00:36:15;10.38;;;3.55;;
1949;SDS011;975;48.760;9.152;2023-02-22T00:38:49;6.47;;;2.70;;
1949;SDS011;975;48.760;9.152;2023-02-22T00:41:16;9.57;;;3.33;;
1949;SDS011;975;48.760;9.152;2023-02-22T00:43:48;12.05;;;4.00;;
1949;SDS011;975;48.760;9.152;2023-02-22T00:46:16;6.70;;;3.03;;
1949;SDS011;975;48.760;9.152;2023-02-22T00:48:43;10.32;;;3.80;;
1949;SDS011;975;48.760;9.152;2023-02-22T00:51:11;13.73;;;3.80;;
1949;SDS011;975;48.760;9.152;2023-02-22T00:53:44;10.27;;;3.53;;
1949;SDS011;975;48.760;9.152;2023-02-22T00:56:12;13.35;;;3.65;;
1949;SDS011;975;48.760;9.152;2023-02-22T00:58:39;15.73;;;3.83;;
1949;SDS011;975;48.760;9.152;2023-02-22T01:01:08;10.70;;;3.58;;
1949;SDS011;975;48.760;9.152;2023-02-22T01:03:39;10.25;;;3.83;;
1949;SDS011;975;48.760;9.152;2023-02-22T01:06:07;10.00;;;3.47;;
1949;SDS011;975;48.760;9.152;2023-02-22T01:08:34;8.75;;;3.60;;
1949;SDS011;975;48.760;9.152;2023-02-22T01:11:02;9.68;;;3.15;;
1949;SDS011;975;48.760;9.152;2023-02-22T01:13:29;7.55;;;2.70;;
1949;SDS011;975;48.760;9.152;2023-02-22T01:15:58;8.07;;;2.83;;
1949;SDS011;975;48.760;9.152;2023-02-22T01:18:28;11.82;;;3.65;;
1949;SDS011;975;48.760;9.152;2023-02-22T01:20:56;13.45;;;4.10;;
1949;SDS011;975;48.760;9.152;2023-02-22T01:23:25;15.65;;;3.67;;
1949;SDS011;975;48.760;9.152;2023-02-22T01:25:53;12.27;;;3.58;;
1949;SDS011;975;48.760;9.152;2023-02-22T01:28:23;10.38;;;3.17;;
1949;SDS011;975;48.760;9.152;2023-02-22T01:30:51;9.90;;;3.20;;
1949;SDS011;975;48.760;9.152;2023-02-22T01:33:22;5.22;;;2.58;;
1949;SDS011;975;48.760;9.152;2023-02-22T01:35:51;6.78;;;2.83;;
1949;SDS011;975;48.760;9.152;2023-02-22T01:38:18;8.38;;;3.08;;
1949;SDS011;975;48.760;9.152;2023-02-22T01:40:47;10.68;;;3.55;;
1949;SDS011;975;48.760;9.152;2023-02-22T01:43:16;10.98;;;3.28;;
1949;SDS011;975;48.760;9.152;2023-02-22T01:48:33;7.55;;;3.25;;
1949;SDS011;975;48.760;9.152;2023-02-22T01:51:03;9.48;;;3.25;;
1949;SDS011;975;48.760;9.152;2023-02-22T01:53:36;8.52;;;3.25;;
1949;SDS011;975;48.760;9.152;2023-02-22T01:56:05;6.18;;;2.75;;
1949;SDS011;975;48.760;9.152;2023-02-22T01:58:32;6.03;;;2.53;;
1949;SDS011;975;48.760;9.152;2023-02-22T02:01:01;6.03;;;2.60;;
1949;SDS011;975;48.760;9.152;2023-02-22T02:03:29;11.60;;;2.60;;
1949;SDS011;975;48.760;9.152;2023-02-22T02:06:04;6.72;;;2.10;;
1949;SDS011;975;48.760;9.152;2023-02-22T02:08:34;10.13;;;3.88;;
1949;SDS011;975;48.760;9.152;2023-02-22T02:11:03;8.57;;;2.90;;
1949;SDS011;975;48.760;9.152;2023-02-22T02:13:31;5.75;;;2.80;;
1949;SDS011;975;48.760;9.152;2023-02-22T02:15:59;7.95;;;2.90;;
1949;SDS011;975;48.760;9.152;2023-02-22T02:18:27;8.00;;;3.15;;
1949;SDS011;975;48.760;9.152;2023-02-22T02:21:17;4.63;;;2.22;;
1949;SDS011;975;48.760;9.152;2023-02-22T02:23:55;8.13;;;2.90;;
1949;SDS011;975;48.760;9.152;2023-02-22T02:26:43;6.40;;;2.50;;
1949;SDS011;975;48.760;9.152;2023-02-22T02:32:10;7.40;;;2.65;;
1949;SDS011;975;48.760;9.152;2023-02-22T02:34:44;5.15;;;2.53;;
1949;SDS011;975;48.760;9.152;2023-02-22T02:37:18;6.70;;;2.25;;
1949;SDS011;975;48.760;9.152;2023-02-22T02:39:49;3.72;;;2.20;;
1949;SDS011;975;48.760;9.152;2023-02-22T02:42:19;7.07;;;3.17;;
1949;SDS011;975;48.760;9.152;2023-02-22T02:44:48;8.38;;;3.22;;
1949;SDS011;975;48.760;9.152;2023-02-22T02:47:22;7.82;;;2.78;;
1949;SDS011;975;48.760;9.152;2023-02-22T02:50:02;7.47;;;2.97;;
1949;SDS011;975;48.760;9.152;2023-02-22T02:52:31;8.90;;;2.45;;
1949;SDS011;975;48.760;9.152;2023-02-22T02:55:00;5.68;;;2.53;;
1949;SDS011;975;48.760;9.152;2023-02-22T02:57:29;4.82;;;2.83;;
1949;SDS011;975;48.760;9.152;2023-02-22T02:59:57;5.15;;;2.40;;
1949;SDS011;975;48.760;9.152;2023-02-22T03:02:35;5.50;;;3.17;;
1949;SDS011;975;48.760;9.152;2023-02-22T03:05:28;6.95;;;2.97;;
1949;SDS011;975;48.760;9.152;2023-02-22T03:08:08;6.40;;;2.92;;
1949;SDS011;975;48.760;9.152;2023-02-22T03:10:43;7.55;;;3.53;;
1949;SDS011;975;48.760;9.152;2023-02-22T03:13:13;10.18;;;3.50;;
1949;SDS011;975;48.760;9.152;2023-02-22T03:15:47;7.07;;;2.92;;
1949;SDS011;975;48.760;9.152;2023-02-22T03:18:18;7.78;;;2.88;;
1949;SDS011;975;48.760;9.152;2023-02-22T03:20:49;9.13;;;3.17;;
1949;SDS011;975;48.760;9.152;2023-02-22T03:23:21;7.15;;;3.20;;
1949;SDS011;975;48.760;9.152;2023-02-22T03:25:50;8.57;;;2.70;;
1949;SDS011;975;48.760;9.152;2023-02-22T03:28:22;8.13;;;3.60;;
1949;SDS011;975;48.760;9.152;2023-02-22T03:30:52;9.18;;;3.35;;
1949;SDS011;975;48.760;9.152;2023-02-22T03:33:29;6.18;;;3.00;;
1949;SDS011;975;48.760;9.152;2023-02-22T03:35:59;6.53;;;3.20;;
1949;SDS011;975;48.760;9.152;2023-02-22T03:38:31;8.65;;;3.25;;
1949;SDS011;975;48.760;9.152;2023-02-22T03:41:00;13.38;;;3.35;;
1949;SDS011;975;48.760;9.152;2023-02-22T03:43:28;8.18;;;3.38;;
1949;SDS011;975;48.760;9.152;2023-02-22T03:45:56;9.95;;;4.05;;
1949;SDS011;975;48.760;9.152;2023-02-22T03:48:29;6.82;;;3.50;;
1949;SDS011;975;48.760;9.152;2023-02-22T03:50:59;6.80;;;2.78;;
1949;SDS011;975;48.760;9.152;2023-02-22T03:53:28;10.23;;;3.55;;
1949;SDS011;975;48.760;9.152;2023-02-22T03:55:57;9.48;;;3.45;;
1949;SDS011;975;48.760;9.152;2023-02-22T03:58:26;9.35;;;4.05;;
1949;SDS011;975;48.760;9.152;2023-02-22T04:00:54;7.68;;;3.60;;
1949;SDS011;975;48.760;9.152;2023-02-22T04:03:22;8.32;;;3.88;;
1949;SDS011;975;48.760;9.152;2023-02-22T04:05:51;7.03;;;3.53;;
1949;SDS011;975;48.760;9.152;2023-02-22T04:08:19;7.13;;;3.38;;
1949;SDS011;975;48.760;9.152;2023-02-22T04:10:49;7.05;;;3.28;;
1949;SDS011;975;48.760;9.152;2023-02-22T04:13:19;8.70;;;3.67;;
1949;SDS011;975;48.760;9.152;2023-02-22T04:15:47;10.82;;;3.75;;
1949;SDS011;975;48.760;9.152;2023-02-22T04:18:15;12.93;;;3.45;;
1949;SDS011;975;48.760;9.152;2023-02-22T04:20:42;8.85;;;4.53;;
1949;SDS011;975;48.760;9.152;2023-02-22T04:23:14;8.70;;;3.42;;
1949;SDS011;975;48.760;9.152;2023-02-22T04:25:42;8.50;;;3.33;;
1949;SDS011;975;48.760;9.152;2023-02-22T04:28:10;8.82;;;3.22;;
1949;SDS011;975;48.760;9.152;2023-02-22T04:30:37;7.65;;;3.65;;
1949;SDS011;975;48.760;9.152;2023-02-22T04:33:05;5.20;;;3.53;;
1949;SDS011;975;48.760;9.152;2023-02-22T04:35:33;10.50;;;4.65;;
1949;SDS011;975;48.760;9.152;2023-02-22T04:38:00;6.82;;;2.97;;
1949;SDS011;975;48.760;9.152;2023-02-22T04:40:30;10.13;;;3.17;;
1949;SDS011;975;48.760;9.152;2023-02-22T04:42:57;9.43;;;3.75;;
1949;SDS011;975;48.760;9.152;2023-02-22T04:45:25;8.93;;;3.67;;
1949;SDS011;975;48.760;9.152;2023-02-22T04:47:53;9.38;;;3.28;;
1949;SDS011;975;48.760;9.152;2023-02-22T04:50:33;9.23;;;3.13;;
1949;SDS011;975;48.760;9.152;2023-02-22T04:55:33;6.72;;;2.95;;
1949;SDS011;975;48.760;9.152;2023-02-22T04:58:01;6.25;;;2.88;;
1949;SDS011;975;48.760;9.152;2023-02-22T05:00:28;6.35;;;3.25;;
1949;SDS011;975;48.760;9.152;2023-02-22T05:02:56;8.77;;;3.67;;
1949;SDS011;975;48.760;9.152;2023-02-22T05:05:24;7.60;;;3.00;;
1949;SDS011;975;48.760;9.152;2023-02-22T05:07:54;11.02;;;3.83;;
1949;SDS011;975;48.760;9.152;2023-02-22T05:10:22;6.35;;;3.15;;
1949;SDS011;975;48.760;9.152;2023-02-22T05:12:51;6.95;;;3.92;;
1949;SDS011;975;48.760;9.152;2023-02-22T05:15:19;8.45;;;3.45;;
1949;SDS011;975;48.760;9.152;2023-02-22T05:17:47;11.07;;;4.22;;
1949;SDS011;975;48.760;9.152;2023-02-22T05:20:15;9.23;;;4.38;;
1949;SDS011;975;48.760;9.152;2023-02-22T05:22:43;13.88;;;4.93;;
1949;SDS011;975;48.760;9.152;2023-02-22T05:25:20;16.13;;;5.60;;
1949;SDS011;975;48.760;9.152;2023-02-22T05:27:52;10.32;;;5.50;;
1949;SDS011;975;48.760;9.152;2023-02-22T05:30:24;13.65;;;5.45;;
1949;SDS011;975;48.760;9.152;2023-02-22T05:32:52;10.77;;;4.55;;
1949;SDS011;975;48.760;9.152;2023-02-22T05:35:20;12.15;;;5.70;;
1949;SDS011;975;48.760;9.152;2023-02-22T05:37:48;14.88;;;5.85;;
1949;SDS011;975;48.760;9.152;2023-02-22T05:40:16;13.38;;;5.38;;
1949;SDS011;975;48.760;9.152;2023-02-22T05:42:44;8.57;;;4.55;;
1949;SDS011;975;48.760;9.152;2023-02-22T05:45:13;11.93;;;5.45;;
1949;SDS011;975;48.760;9.152;2023-02-22T05:47:41;11.52;;;5.20;;
1949;SDS011;975;48.760;9.152;2023-02-22T05:50:09;10.63;;;5.00;;
1949;SDS011;975;48.760;9.152;2023-02-22T05:52:37;13.27;;;5.32;;
1949;SDS011;975;48.760;9.152;2023-02-22T05:55:05;10.07;;;4.93;;
1949;SDS011;975;48.760;9.152;2023-02-22T05:57:33;11.35;;;5.65;;
1949;SDS011;975;48.760;9.152;2023-02-22T06:00:01;11.65;;;4.75;;
1949;SDS011;975;48.760;9.152;2023-02-22T06:02:32;17.35;;;6.05;;
1949;SDS011;975;48.760;9.152;2023-02-22T06:05:00;12.02;;;5.20;;
1949;SDS011;975;48.760;9.152;2023-02-22T06:07:27;12.95;;;5.13;;
1949;SDS011;975;48.760;9.152;2023-02-22T06:09:57;12.23;;;4.93;;
1949;SDS011;975;48.760;9.152;2023-02-22T06:12:25;10.77;;;5.30;;
1949;SDS011;975;48.760;9.152;2023-02-22T06:14:52;12.60;;;5.32;;
1949;SDS011;975;48.760;9.152;2023-02-22T06:17:20;12.27;;;5.00;;
1949;SDS011;975;48.760;9.152;2023-02-22T06:19:49;11.52;;;5.22;;
1949;SDS011;975;48.760;9.152;2023-02-22T06:22:17;10.05;;;5.35;;
1949;SDS011;975;48.760;9.152;2023-02-22T06:24:47;12.45;;;5.25;;
1949;SDS011;975;48.760;9.152;2023-02-22T06:27:15;9.02;;;5.32;;
1949;SDS011;975;48.760;9.152;2023-02-22T06:29:43;13.30;;;5.82;;
1949;SDS011;975;48.760;9.152;2023-02-22T06:32:11;12.88;;;5.43;;
1949;SDS011;975;48.760;9.152;2023-02-22T06:34:41;12.35;;;5.30;;
1949;SDS011;975;48.760;9.152;2023-02-22T06:37:10;8.05;;;4.80;;
1949;SDS011;975;48.760;9.152;2023-02-22T06:39:38;12.48;;;5.28;;
1949;SDS011;975;48.760;9.152;2023-02-22T06:42:06;13.90;;;5.25;;
1949;SDS011;975;48.760;9.152;2023-02-22T06:44:40;14.73;;;5.35;;
1949;SDS011;975;48.760;9.152;2023-02-22T06:47:07;12.13;;;5.35;;
1949;SDS011;975;48.760;9.152;2023-02-22T06:49:35;11.75;;;4.60;;
1949;SDS011;975;48.760;9.152;2023-02-22T06:52:06;11.70;;;5.03;;
1949;SDS011;975;48.760;9.152;2023-02-22T06:54:37;10.45;;;5.20;;
1949;SDS011;975;48.760;9.152;2023-02-22T06:57:05;14.90;;;5.13;;
1949;SDS011;975;48.760;9.152;2023-02-22T06:59:36;11.02;;;5.28;;
1949;SDS011;975;48.760;9.152;2023-02-22T07:02:03;13.55;;;5.20;;
1949;SDS011;975;48.760;9.152;2023-02-22T07:04:31;12.95;;;5.40;;
1949;SDS011;975;48.760;9.152;2023-02-22T07:06:58;13.80;;;4.72;;
1949;SDS011;975;48.760;9.152;2023-02-22T07:09:26;12.93;;;4.85;;
1949;SDS011;975;48.760;9.152;2023-02-22T07:11:55;10.98;;;4.20;;
1949;SDS011;975;48.760;9.152;2023-02-22T07:14:22;14.00;;;4.85;;
1949;SDS011;975;48.760;9.152;2023-02-22T07:16:50;11.35;;;4.88;;
1949;SDS011;975;48.760;9.152;2023-02-22T07:19:18;11.60;;;5.28;;
1949;SDS011;975;48.760;9.152;2023-02-22T07:21:45;17.42;;;5.25;;
1949;SDS011;975;48.760;9.152;2023-02-22T07:24:13;11.02;;;4.57;;
1949;SDS011;975;48.760;9.152;2023-02-22T07:26:41;12.25;;;4.82;;
1949;SDS011;975;48.760;9.152;2023-02-22T07:29:09;10.90;;;4.80;;
1949;SDS011;975;48.760;9.152;2023-02-22T07:31:39;11.45;;;5.35;;
1949;SDS011;975;48.760;9.152;2023-02-22T07:34:11;8.65;;;4.65;;
1949;SDS011;975;48.760;9.152;2023-02-22T07:36:39;10.48;;;3.90;;
1949;SDS011;975;48.760;9.152;2023-02-22T07:39:07;11.60;;;5.35;;
1949;SDS011;975;48.760;9.152;2023-02-22T07:41:35;9.73;;;4.82;;
1949;SDS011;975;48.760;9.152;2023-02-22T07:44:03;10.85;;;5.25;;
1949;SDS011;975;48.760;9.152;2023-02-22T07:46:32;16.40;;;5.65;;
1949;SDS011;975;48.760;9.152;2023-02-22T07:48:59;11.80;;;5.40;;
1949;SDS011;975;48.760;9.152;2023-02-22T07:51:27;12.65;;;5.00;;
1949;SDS011;975;48.760;9.152;2023-02-22T07:53:55;8.73;;;4.38;;
1949;SDS011;975;48.760;9.152;2023-02-22T07:56:22;11.00;;;5.35;;
1949;SDS011;975;48.760;9.152;2023-02-22T07:58:50;13.38;;;4.93;;
1949;SDS011;975;48.760;9.152;2023-02-22T08:01:17;14.25;;;5.05;;
1949;SDS011;975;48.760;9.152;2023-02-22T08:03:50;12.10;;;5.18;;
1949;SDS011;975;48.760;9.152;2023-02-22T08:06:21;12.07;;;4.57;;
1949;SDS011;975;48.760;9.152;2023-02-22T08:08:53;13.27;;;5.05;;
1949;SDS011;975;48.760;9.152;2023-02-22T08:11:21;11.82;;;5.97;;
1949;SDS011;975;48.760;9.152;2023-02-22T08:13:49;13.05;;;5.72;;
1949;SDS011;975;48.760;9.152;2023-02-22T08:16:16;15.10;;;6.63;;
1949;SDS011;975;48.760;9.152;2023-02-22T08:18:44;14.88;;;6.10;;
1949;SDS011;975;48.760;9.152;2023-02-22T08:21:13;13.43;;;5.82;;
1949;SDS011;975;48.760;9.152;2023-02-22T08:23:42;13.13;;;6.03;;
1949;SDS011;975;48.760;9.152;2023-02-22T08:26:10;10.93;;;5.22;;
1949;SDS011;975;48.760;9.152;2023-02-22T08:28:40;17.65;;;6.28;;
1949;SDS011;975;48.760;9.152;2023-02-22T08:31:07;15.02;;;5.97;;
1949;SDS011;975;48.760;9.152;2023-02-22T08:33:35;14.40;;;5.88;;
1949;SDS011;975;48.760;9.152;2023-02-22T08:36:03;14.63;;;6.30;;
1949;SDS011;975;48.760;9.152;2023-02-22T08:38:32;11.57;;;5.55;;
1949;SDS011;975;48.760;9.152;2023-02-22T08:41:00;14.27;;;6.85;;
1949;SDS011;975;48.760;9.152;2023-02-22T08:43:27;16.52;;;6.35;;
1949;SDS011;975;48.760;9.152;2023-02-22T08:45:55;14.45;;;6.65;;
1949;SDS011;975;48.760;9.152;2023-02-22T08:48:22;14.18;;;7.03;;
1949;SDS011;975;48.760;9.152;2023-02-22T08:50:50;15.20;;;6.25;;
1949;SDS011;975;48.760;9.152;2023-02-22T08:53:18;17.40;;;6.15;;
1949;SDS011;975;48.760;9.152;2023-02-22T08:55:47;12.68;;;5.95;;
1949;SDS011;975;48.760;9.152;2023-02-22T08:58:15;12.38;;;6.05;;
1949;SDS011;975;48.760;9.152;2023-02-22T09:00:42;10.07;;;6.10;;
1949;SDS011;975;48.760;9.152;2023-02-22T09:03:11;13.45;;;7.13;;
1949;SDS011;975;48.760;9.152;2023-02-22T09:05:39;16.27;;;7.03;;
1949;SDS011;975;48.760;9.152;2023-02-22T09:08:06;11.30;;;6.30;;
1949;SDS011;975;48.760;9.152;2023-02-22T09:10:34;10.98;;;6.35;;
1949;SDS011;975;48.760;9.152;2023-02-22T09:13:04;14.85;;;6.90;;
1949;SDS011;975;48.760;9.152;2023-02-22T09:15:32;15.63;;;7.03;;
1949;SDS011;975;48.760;9.152;2023-02-22T09:18:01;15.93;;;6.97;;
1949;SDS011;975;48.760;9.152;2023-02-22T09:20:29;14.57;;;7.22;;
1949;SDS011;975;48.760;9.152;2023-02-22T09:22:57;15.00;;;6.68;;
1949;SDS011;975;48.760;9.152;2023-02-22T09:25:27;18.67;;;7.78;;
1949;SDS011;975;48.760;9.152;2023-02-22T09:27:55;17.13;;;7.60;;
1949;SDS011;975;48.760;9.152;2023-02-22T09:30:25;21.13;;;6.97;;
1949;SDS011;975;48.760;9.152;2023-02-22T09:32:57;13.93;;;6.97;;
1949;SDS011;975;48.760;9.152;2023-02-22T09:35:25;15.27;;;7.18;;
1949;SDS011;975;48.760;9.152;2023-02-22T09:37:53;11.50;;;6.65;;
1949;SDS011;975;48.760;9.152;2023-02-22T09:40:24;16.27;;;7.35;;
1949;SDS011;975;48.760;9.152;2023-02-22T09:42:56;16.83;;;7.20;;
1949;SDS011;975;48.760;9.152;2023-02-22T09:45:31;14.63;;;6.13;;
1949;SDS011;975;48.760;9.152;2023-02-22T09:48:01;16.95;;;6.93;;
1949;SDS011;975;48.760;9.152;2023-02-22T09:50:31;14.00;;;6.07;;
1949;SDS011;975;48.760;9.152;2023-02-22T09:53:01;17.23;;;6.68;;
1949;SDS011;975;48.760;9.152;2023-02-22T09:55:30;11.75;;;6.05;;
1949;SDS011;975;48.760;9.152;2023-02-22T09:58:00;14.73;;;6.60;;
1949;SDS011;975;48.760;9.152;2023-02-22T10:00:30;11.93;;;6.18;;
1949;SDS011;975;48.760;9.152;2023-02-22T10:03:04;17.05;;;6.50;;
1949;SDS011;975;48.760;9.152;2023-02-22T10:05:34;11.90;;;5.57;;
1949;SDS011;975;48.760;9.152;2023-02-22T10:08:04;10.88;;;5.88;;
1949;SDS011;975;48.760;9.152;2023-02-22T10:10:32;10.98;;;5.97;;
1949;SDS011;975;48.760;9.152;2023-02-22T10:13:05;10.35;;;6.13;;
1949;SDS011;975;48.760;9.152;2023-02-22T10:15:43;14.45;;;5.80;;
1949;SDS011;975;48.760;9.152;2023-02-22T10:20:55;10.85;;;5.07;;
1949;SDS011;975;48.760;9.152;2023-02-22T10:23:25;14.00;;;5.18;;
1949;SDS011;975;48.760;9.152;2023-02-22T10:25:54;9.32;;;5.30;;
1949;SDS011;975;48.760;9.152;2023-02-22T10:28:26;11.02;;;5.63;;
1949;SDS011;975;48.760;9.152;2023-02-22T10:30:57;9.18;;;5.25;;
1949;SDS011;975;48.760;9.152;2023-02-22T10:33:28;9.40;;;5.13;;
1949;SDS011;975;48.760;9.152;2023-02-22T10:35:56;12.35;;;5.10;;
1949;SDS011;975;48.760;9.152;2023-02-22T10:38:24;10.25;;;5.28;;
1949;SDS011;975;48.760;9.152;2023-02-22T10:40:53;10.38;;;5.53;;
1949;SDS011;975;48.760;9.152;2023-02-22T10:43:23;10.23;;;5.13;;
1949;SDS011;975;48.760;9.152;2023-02-22T10:45:51;9.43;;;4.93;;
1949;SDS011;975;48.760;9.152;2023-02-22T10:48:22;12.05;;;5.00;;
1949;SDS011;975;48.760;9.152;2023-02-22T10:50:51;14.88;;;6.13;;
1949;SDS011;975;48.760;9.152;2023-02-22T10:53:20;9.95;;;5.55;;
1949;SDS011;975;48.760;9.152;2023-02-22T10:56:07;14.20;;;5.47;;
1949;SDS011;975;48.760;9.152;2023-02-22T10:58:45;8.98;;;5.20;;
1949;SDS011;975;48.760;9.152;2023-02-22T11:01:16;9.43;;;5.03;;
1949;SDS011;975;48.760;9.152;2023-02-22T11:03:46;12.15;;;5.80;;
1949;SDS011;975;48.760;9.152;2023-02-22T11:06:22;16.55;;;5.90;;
1949;SDS011;975;48.760;9.152;2023-02-22T11:08:50;9.25;;;5.28;;
1949;SDS011;975;48.760;9.152;2023-02-22T11:11:26;14.27;;;6.00;;
1949;SDS011;975;48.760;9.152;2023-02-22T11:13:57;13.48;;;6.18;;
1949;SDS011;975;48.760;9.152;2023-02-22T11:16:26;13.20;;;5.50;;
1949;SDS011;975;48.760;9.152;2023-02-22T11:18:59;12.85;;;5.80;;
1949;SDS011;975;48.760;9.152;2023-02-22T11:21:28;11.38;;;5.85;;
1949;SDS011;975;48.760;9.152;2023-02-22T11:24:00;12.30;;;6.00;;
1949;SDS011;975;48.760;9.152;2023-02-22T11:26:28;15.35;;;7.03;;
1949;SDS011;975;48.760;9.152;2023-02-22T11:29:07;18.52;;;6.63;;
1949;SDS011;975;48.760;9.152;2023-02-22T11:31:39;12.00;;;6.05;;
1949;SDS011;975;48.760;9.152;2023-02-22T11:34:23;11.95;;;5.72;;
1949;SDS011;975;48.760;9.152;2023-02-22T11:36:53;13.45;;;6.30;;
1949;SDS011;975;48.760;9.152;2023-02-22T11:39:24;17.75;;;6.75;;
1949;SDS011;975;48.760;9.152;2023-02-22T11:41:52;15.02;;;6.47;;
1949;SDS011;975;48.760;9.152;2023-02-22T11:44:25;12.18;;;6.30;;
1949;SDS011;975;48.760;9.152;2023-02-22T11:46:53;12.10;;;6.68;;
1949;SDS011;975;48.760;9.152;2023-02-22T11:49:30;13.65;;;6.22;;
1949;SDS011;975;48.760;9.152;2023-02-22T11:52:02;9.60;;;6.40;;
1949;SDS011;975;48.760;9.152;2023-02-22T11:54:38;13.82;;;7.03;;
1949;SDS011;975;48.760;9.152;2023-02-22T11:57:12;15.57;;;6.25;;
1949;SDS011;975;48.760;9.152;2023-02-22T11:59:43;13.10;;;6.65;;
1949;SDS011;975;48.760;9.152;2023-02-22T12:02:21;11.90;;;6.05;;
1949;SDS011;975;48.760;9.152;2023-02-22T12:04:58;11.88;;;6.32;;
1949;SDS011;975;48.760;9.152;2023-02-22T12:07:31;12.52;;;6.43;;
1949;SDS011;975;48.760;9.152;2023-02-22T12:10:05;10.68;;;6.20;;
1949;SDS011;975;48.760;9.152;2023-02-22T12:12:37;13.02;;;6.63;;
1949;SDS011;975;48.760;9.152;2023-02-22T12:15:07;12.38;;;7.15;;
1949;SDS011;975;48.760;9.152;2023-02-22T12:17:42;15.05;;;6.22;;
1949;SDS011;975;48.760;9.152;2023-02-22T12:20:16;14.18;;;6.38;;
1949;SDS011;975;48.760;9.152;2023-02-22T12:22:52;10.85;;;6.60;;
1949;SDS011;975;48.760;9.152;2023-02-22T12:25:22;15.15;;;7.45;;
1949;SDS011;975;48.760;9.152;2023-02-22T12:27:52;13.05;;;7.10;;
1949;SDS011;975;48.760;9.152;2023-02-22T12:30:23;12.13;;;6.72;;
1949;SDS011;975;48.760;9.152;2023-02-22T12:32:53;13.23;;;6.32;;
1949;SDS011;975;48.760;9.152;2023-02-22T12:35:25;14.05;;;5.85;;
1949;SDS011;975;48.760;9.152;2023-02-22T12:37:58;13.95;;;6.53;;
1949;SDS011;975;48.760;9.152;2023-02-22T12:40:29;11.85;;;7.10;;
1949;SDS011;975;48.760;9.152;2023-02-22T12:43:01;13.65;;;7.32;;
1949;SDS011;975;48.760;9.152;2023-02-22T12:48:00;12.77;;;6.28;;
1949;SDS011;975;48.760;9.152;2023-02-22T12:50:33;20.50;;;7.47;;
1949;SDS011;975;48.760;9.152;2023-02-22T12:53:03;13.10;;;7.10;;
1949;SDS011;975;48.760;9.152;2023-02-22T12:55:34;13.77;;;7.45;;
1949;SDS011;975;48.760;9.152;2023-02-22T13:00:32;13.90;;;6.40;;
1949;SDS011;975;48.760;9.152;2023-02-22T13:03:02;14.73;;;7.32;;
1949;SDS011;975;48.760;9.152;2023-02-22T13:05:33;14.30;;;7.28;;
1949;SDS011;975;48.760;9.152;2023-02-22T13:08:08;11.60;;;6.40;;
1949;SDS011;975;48.760;9.152;2023-02-22T13:10:43;11.52;;;6.32;;
1949;SDS011;975;48.760;9.152;2023-02-22T13:13:18;14.82;;;6.90;;
1949;SDS011;975;48.760;9.152;2023-02-22T13:15:51;16.00;;;6.80;;
1949;SDS011;975;48.760;9.152;2023-02-22T13:18:23;14.73;;;7.00;;
1949;SDS011;975;48.760;9.152;2023-02-22T13:21:01;10.80;;;6.20;;
1949;SDS011;975;48.760;9.152;2023-02-22T13:23:33;12.95;;;6.45;;
1949;SDS011;975;48.760;9.152;2023-02-22T13:26:04;12.05;;;6.43;;
1949;SDS011;975;48.760;9.152;2023-02-22T13:28:35;13.13;;;6.63;;
1949;SDS011;975;48.760;9.152;2023-02-22T13:31:08;15.65;;;6.80;;
1949;SDS011;975;48.760;9.152;2023-02-22T13:33:41;13.05;;;7.00;;
1949;SDS011;975;48.760;9.152;2023-02-22T13:36:28;13.60;;;6.25;;
1949;SDS011;975;48.760;9.152;2023-02-22T13:39:04;10.05;;;5.97;;
1949;SDS011;975;48.760;9.152;2023-02-22T13:44:40;14.85;;;6.03;;
1949;SDS011;975;48.760;9.152;2023-02-22T13:52:51;11.10;;;6.00;;
1949;SDS011;975;48.760;9.152;2023-02-22T13:55:20;11.70;;;6.15;;
1949;SDS011;975;48.760;9.152;2023-02-22T13:57:55;13.50;;;6.35;;
1949;SDS011;975;48.760;9.152;2023-02-22T14:00:39;19.13;;;8.40;;
1949;SDS011;975;48.760;9.152;2023-02-22T14:03:18;14.85;;;8.40;;
1949;SDS011;975;48.760;9.152;2023-02-22T14:06:01;14.68;;;7.15;;
1949;SDS011;975;48.760;9.152;2023-02-22T14:08:45;14.00;;;6.65;;
1949;SDS011;975;48.760;9.152;2023-02-22T14:14:18;14.40;;;6.70;;
1949;SDS011;975;48.760;9.152;2023-02-22T14:19:32;13.65;;;7.00;;
1949;SDS011;975;48.760;9.152;2023-02-22T14:22:01;13.25;;;7.18;;
1949;SDS011;975;48.760;9.152;2023-02-22T14:24:40;15.65;;;6.28;;
1949;SDS011;975;48.760;9.152;2023-02-22T14:27:08;11.88;;;6.07;;
1949;SDS011;975;48.760;9.152;2023-02-22T14:29:49;12.82;;;7.22;;
1949;SDS011;975;48.760;9.152;2023-02-22T14:32:18;15.65;;;7.05;;
1949;SDS011;975;48.760;9.152;2023-02-22T14:34:46;16.23;;;7.80;;
1949;SDS011;975;48.760;9.152;2023-02-22T14:37:15;16.08;;;7.85;;
1949;SDS011;975;48.760;9.152;2023-02-22T14:39:48;38.78;;;20.55;;
1949;SDS011;975;48.760;9.152;2023-02-22T14:42:18;12.35;;;7.68;;
1949;SDS011;975;48.760;9.152;2023-02-22T14:44:50;16.98;;;7.65;;
1949;SDS011;975;48.760;9.152;2023-02-22T14:47:21;18.60;;;7.90;;
1949;SDS011;975;48.760;9.152;2023-02-22T14:49:53;13.85;;;7.35;;
1949;SDS011;975;48.760;9.152;2023-02-22T14:55:49;14.38;;;7.25;;
1949;SDS011;975;48.760;9.152;2023-02-22T14:58:24;15.05;;;6.95;;
1949;SDS011;975;48.760;9.152;2023-02-22T15:00:54;15.23;;;7.85;;
1949;SDS011;975;48.760;9.152;2023-02-22T15:03:26;14.02;;;6.68;;
1949;SDS011;975;48.760;9.152;2023-02-22T15:06:05;20.60;;;8.57;;
1949;SDS011;975;48.760;9.152;2023-02-22T15:08:33;13.23;;;7.15;;
1949;SDS011;975;48.760;9.152;2023-02-22T15:11:18;13.88;;;7.75;;
1949;SDS011;975;48.760;9.152;2023-02-22T15:13:48;17.73;;;7.85;;
1949;SDS011;975;48.760;9.152;2023-02-22T15:16:16;17.70;;;7.88;;
1949;SDS011;975;48.760;9.152;2023-02-22T15:18:46;14.77;;;7.78;;
1949;SDS011;975;48.760;9.152;2023-02-22T15:21:23;13.82;;;7.75;;
1949;SDS011;975;48.760;9.152;2023-02-22T15:23:52;14.93;;;7.50;;
1949;SDS011;975;48.760;9.152;2023-02-22T15:26:23;14.18;;;7.80;;
1949;SDS011;975;48.760;9.152;2023-02-22T15:28:52;14.85;;;7.38;;
1949;SDS011;975;48.760;9.152;2023-02-22T15:31:25;14.95;;;8.55;;
1949;SDS011;975;48.760;9.152;2023-02-22T15:33:53;18.23;;;8.25;;
1949;SDS011;975;48.760;9.152;2023-02-22T15:36:24;14.05;;;7.47;;
1949;SDS011;975;48.760;9.152;2023-02-22T15:38:52;15.20;;;7.05;;
1949;SDS011;975;48.760;9.152;2023-02-22T15:41:26;15.63;;;7.60;;
1949;SDS011;975;48.760;9.152;2023-02-22T15:44:00;16.52;;;8.35;;
1949;SDS011;975;48.760;9.152;2023-02-22T15:46:31;15.18;;;8.85;;
1949;SDS011;975;48.760;9.152;2023-02-22T15:49:06;19.17;;;8.35;;
1949;SDS011;975;48.760;9.152;2023-02-22T15:51:34;14.70;;;8.20;;
1949;SDS011;975;48.760;9.152;2023-02-22T15:54:03;15.77;;;8.05;;
1949;SDS011;975;48.760;9.152;2023-02-22T15:59:11;13.52;;;7.70;;
1949;SDS011;975;48.760;9.152;2023-02-22T16:01:45;18.92;;;9.40;;
1949;SDS011;975;48.760;9.152;2023-02-22T16:06:42;20.10;;;8.43;;
1949;SDS011;975;48.760;9.152;2023-02-22T16:09:10;15.88;;;7.93;;
1949;SDS011;975;48.760;9.152;2023-02-22T16:11:39;15.00;;;7.47;;
1949;SDS011;975;48.760;9.152;2023-02-22T16:14:24;16.02;;;8.15;;
1949;SDS011;975;48.760;9.152;2023-02-22T16:19:27;17.80;;;8.63;;
1949;SDS011;975;48.760;9.152;2023-02-22T16:21:58;16.85;;;8.10;;